sensor_id;sensor_type;location;lat;lon;timestamp;P1;durP1;ratioP1;P2;durP2;ratioP2
58978;SDS011;44763;50.464;30.612;2022-07-01T00:02:00;6.55;;;6.15;;
58978;SDS011;44763;50.464;30.612;2022-07-01T00:04:28;6.55;;;6.10;;
58978;SDS011;44763;50.464;30.612;2022-07-01T00:06:56;6.55;;;6.15;;
58978;SDS011;44763;50.464;30.612;2022-07-01T00:09:23;6.28;;;5.72;;
58978;SDS011;44763;50.464;30.612;2022-07-01T00:14:15;6.08;;;5.78;;
58978;SDS011;44763;50.464;30.612;2022-07-01T00:16:42;6.00;;;5.65;;
58978;SDS011;44763;50.464;30.612;2022-07-01T00:19:08;7.55;;;7.03;;
58978;SDS011;44763;50.464;30.612;2022-07-01T00:21:35;7.62;;;7.15;;
58978;SDS011;44763;50.464;30.612;2022-07-01T00:24:02;7.58;;;6.75;;
58978;SDS011;44763;50.464;30.612;2022-07-01T00:26:28;6.30;;;5.78;;
58978;SDS011;44763;50.464;30.612;2022-07-01T00:28:55;6.55;;;6.03;;
58978;SDS011;44763;50.464;30.612;2022-07-01T00:31:21;5.92;;;5.62;;
58978;SDS011;44763;50.464;30.612;2022-07-01T00:33:47;6.15;;;5.85;;
58978;SDS011;44763;50.464;30.612;2022-07-01T00:36:13;6.50;;;6.10;;
58978;SDS011;44763;50.464;30.612;2022-07-01T00:38:39;7.20;;;6.60;;
58978;SDS011;44763;50.464;30.612;2022-07-01T00:41:05;6.97;;;6.47;;
58978;SDS011;44763;50.464;30.612;2022-07-01T00:43:35;6.55;;;6.05;;
58978;SDS011;44763;50.464;30.612;2022-07-01T00:46:04;5.83;;;5.45;;
58978;SDS011;44763;50.464;30.612;2022-07-01T00:48:31;6.65;;;6.17;;
58978;SDS011;44763;50.464;30.612;2022-07-01T00:51:01;6.83;;;6.33;;
58978;SDS011;44763;50.464;30.612;2022-07-01T00:53:29;6.72;;;6.15;;
58978;SDS011;44763;50.464;30.612;2022-07-01T00:55:55;6.28;;;5.67;;
58978;SDS011;44763;50.464;30.612;2022-07-01T00:58:25;6.40;;;6.10;;
58978;SDS011;44763;50.464;30.612;2022-07-01T01:00:54;6.17;;;5.67;;
58978;SDS011;44763;50.464;30.612;2022-07-01T01:03:25;8.83;;;6.83;;
58978;SDS011;44763;50.464;30.612;2022-07-01T01:05:52;6.00;;;5.45;;
58978;SDS011;44763;50.464;30.612;2022-07-01T01:08:20;6.45;;;5.95;;
58978;SDS011;44763;50.464;30.612;2022-07-01T01:10:46;6.90;;;6.42;;
58978;SDS011;44763;50.464;30.612;2022-07-01T01:13:14;5.70;;;5.35;;
58978;SDS011;44763;50.464;30.612;2022-07-01T01:15:42;7.42;;;6.92;;
58978;SDS011;44763;50.464;30.612;2022-07-01T01:18:10;6.62;;;6.20;;
58978;SDS011;44763;50.464;30.612;2022-07-01T01:23:03;7.08;;;6.40;;
58978;SDS011;44763;50.464;30.612;2022-07-01T01:25:33;6.58;;;6.12;;
58978;SDS011;44763;50.464;30.612;2022-07-01T01:28:00;6.97;;;6.45;;
58978;SDS011;44763;50.464;30.612;2022-07-01T01:30:28;6.85;;;6.28;;
58978;SDS011;44763;50.464;30.612;2022-07-01T01:32:54;7.00;;;6.40;;
58978;SDS011;44763;50.464;30.612;2022-07-01T01:35:21;5.90;;;5.60;;
58978;SDS011;44763;50.464;30.612;2022-07-01T01:37:49;7.78;;;7.00;;
58978;SDS011;44763;50.464;30.612;2022-07-01T01:42:43;6.70;;;5.95;;
58978;SDS011;44763;50.464;30.612;2022-07-01T01:45:13;6.47;;;5.92;;
58978;SDS011;44763;50.464;30.612;2022-07-01T01:47:39;7.17;;;6.67;;
58978;SDS011;44763;50.464;30.612;2022-07-01T01:50:07;7.05;;;6.45;;
58978;SDS011;44763;50.464;30.612;2022-07-01T01:52:35;7.22;;;6.72;;
58978;SDS011;44763;50.464;30.612;2022-07-01T01:55:04;6.78;;;6.28;;
58978;SDS011;44763;50.464;30.612;2022-07-01T01:57:31;6.28;;;5.90;;
58978;SDS011;44763;50.464;30.612;2022-07-01T01:59:58;6.58;;;6.08;;
58978;SDS011;44763;50.464;30.612;2022-07-01T02:02:26;7.33;;;6.15;;
58978;SDS011;44763;50.464;30.612;2022-07-01T02:04:56;6.90;;;6.42;;
58978;SDS011;44763;50.464;30.612;2022-07-01T02:07:22;6.53;;;6.12;;
58978;SDS011;44763;50.464;30.612;2022-07-01T02:09:48;6.03;;;5.72;;
58978;SDS011;44763;50.464;30.612;2022-07-01T02:12:14;6.70;;;6.20;;
58978;SDS011;44763;50.464;30.612;2022-07-01T02:14:42;8.00;;;7.30;;
58978;SDS011;44763;50.464;30.612;2022-07-01T02:17:09;9.38;;;8.50;;
58978;SDS011;44763;50.464;30.612;2022-07-01T02:22:01;8.97;;;8.17;;
58978;SDS011;44763;50.464;30.612;2022-07-01T02:24:28;9.60;;;8.98;;
58978;SDS011;44763;50.464;30.612;2022-07-01T02:26:54;9.40;;;8.60;;
58978;SDS011;44763;50.464;30.612;2022-07-01T02:31:46;9.70;;;8.78;;
58978;SDS011;44763;50.464;30.612;2022-07-01T02:36:38;9.15;;;8.53;;
58978;SDS011;44763;50.464;30.612;2022-07-01T02:39:04;8.53;;;7.65;;
58978;SDS011;44763;50.464;30.612;2022-07-01T02:41:30;9.33;;;8.00;;
58978;SDS011;44763;50.464;30.612;2022-07-01T02:43:56;9.35;;;8.50;;
58978;SDS011;44763;50.464;30.612;2022-07-01T02:48:48;8.90;;;8.23;;
58978;SDS011;44763;50.464;30.612;2022-07-01T02:51:15;9.60;;;8.78;;
58978;SDS011;44763;50.464;30.612;2022-07-01T02:56:07;8.23;;;7.62;;
58978;SDS011;44763;50.464;30.612;2022-07-01T02:58:33;8.93;;;7.10;;
58978;SDS011;44763;50.464;30.612;2022-07-01T03:01:00;7.42;;;6.78;;
58978;SDS011;44763;50.464;30.612;2022-07-01T03:03:26;13.25;;;7.58;;
58978;SDS011;44763;50.464;30.612;2022-07-01T03:05:52;8.08;;;7.53;;
58978;SDS011;44763;50.464;30.612;2022-07-01T03:08:19;8.05;;;7.45;;
58978;SDS011;44763;50.464;30.612;2022-07-01T03:10:45;7.62;;;7.12;;
58978;SDS011;44763;50.464;30.612;2022-07-01T03:13:11;8.08;;;7.50;;
58978;SDS011;44763;50.464;30.612;2022-07-01T03:15:38;7.55;;;7.10;;
58978;SDS011;44763;50.464;30.612;2022-07-01T03:18:04;7.45;;;6.85;;
58978;SDS011;44763;50.464;30.612;2022-07-01T03:20:30;6.70;;;6.10;;
58978;SDS011;44763;50.464;30.612;2022-07-01T03:22:56;8.05;;;6.53;;
58978;SDS011;44763;50.464;30.612;2022-07-01T03:25:23;7.35;;;6.65;;
58978;SDS011;44763;50.464;30.612;2022-07-01T03:27:49;7.40;;;6.55;;
58978;SDS011;44763;50.464;30.612;2022-07-01T03:30:15;7.08;;;6.25;;
58978;SDS011;44763;50.464;30.612;2022-07-01T03:32:44;6.12;;;5.62;;
58978;SDS011;44763;50.464;30.612;2022-07-01T03:35:11;6.53;;;5.30;;
58978;SDS011;44763;50.464;30.612;2022-07-01T03:37:56;5.83;;;5.35;;
58978;SDS011;44763;50.464;30.612;2022-07-01T03:40:23;5.72;;;5.35;;
58978;SDS011;44763;50.464;30.612;2022-07-01T03:42:50;5.33;;;4.80;;
58978;SDS011;44763;50.464;30.612;2022-07-01T03:45:16;5.15;;;4.85;;
58978;SDS011;44763;50.464;30.612;2022-07-01T03:47:46;5.10;;;4.87;;
58978;SDS011;44763;50.464;30.612;2022-07-01T03:50:14;5.78;;;5.30;;
58978;SDS011;44763;50.464;30.612;2022-07-01T03:52:42;6.35;;;5.90;;
58978;SDS011;44763;50.464;30.612;2022-07-01T03:55:09;5.33;;;4.95;;
58978;SDS011;44763;50.464;30.612;2022-07-01T03:57:36;6.15;;;5.60;;
58978;SDS011;44763;50.464;30.612;2022-07-01T04:00:04;5.85;;;5.30;;
58978;SDS011;44763;50.464;30.612;2022-07-01T04:02:32;5.70;;;5.25;;
58978;SDS011;44763;50.464;30.612;2022-07-01T04:04:58;5.12;;;4.65;;
58978;SDS011;44763;50.464;30.612;2022-07-01T04:07:25;5.92;;;5.53;;
58978;SDS011;44763;50.464;30.612;2022-07-01T04:09:52;5.20;;;4.78;;
58978;SDS011;44763;50.464;30.612;2022-07-01T04:12:18;4.15;;;3.95;;
58978;SDS011;44763;50.464;30.612;2022-07-01T04:14:45;3.40;;;3.30;;
58978;SDS011;44763;50.464;30.612;2022-07-01T04:17:11;5.05;;;4.75;;
58978;SDS011;44763;50.464;30.612;2022-07-01T04:19:38;3.83;;;3.62;;
58978;SDS011;44763;50.464;30.612;2022-07-01T04:22:04;5.60;;;4.65;;
58978;SDS011;44763;50.464;30.612;2022-07-01T04:24:49;5.55;;;4.20;;
58978;SDS011;44763;50.464;30.612;2022-07-01T04:27:15;4.85;;;4.33;;
58978;SDS011;44763;50.464;30.612;2022-07-01T04:29:41;4.97;;;4.67;;
58978;SDS011;44763;50.464;30.612;2022-07-01T04:32:07;4.97;;;4.70;;
58978;SDS011;44763;50.464;30.612;2022-07-01T04:34:34;6.97;;;3.90;;
58978;SDS011;44763;50.464;30.612;2022-07-01T04:37:02;4.78;;;4.37;;
58978;SDS011;44763;50.464;30.612;2022-07-01T04:39:28;4.30;;;4.10;;
58978;SDS011;44763;50.464;30.612;2022-07-01T04:41:55;4.17;;;3.58;;
58978;SDS011;44763;50.464;30.612;2022-07-01T04:44:27;3.50;;;3.30;;
58978;SDS011;44763;50.464;30.612;2022-07-01T04:46:57;3.62;;;3.40;;
58978;SDS011;44763;50.464;30.612;2022-07-01T04:49:25;4.00;;;3.12;;
58978;SDS011;44763;50.464;30.612;2022-07-01T04:51:52;2.65;;;2.50;;
58978;SDS011;44763;50.464;30.612;2022-07-01T04:54:21;2.20;;;2.20;;
58978;SDS011;44763;50.464;30.612;2022-07-01T04:56:47;3.60;;;2.90;;
58978;SDS011;44763;50.464;30.612;2022-07-01T04:59:14;2.90;;;2.67;;
58978;SDS011;44763;50.464;30.612;2022-07-01T05:01:43;2.80;;;2.20;;
58978;SDS011;44763;50.464;30.612;2022-07-01T05:04:10;3.75;;;2.50;;
58978;SDS011;44763;50.464;30.612;2022-07-01T05:06:38;2.45;;;2.25;;
58978;SDS011;44763;50.464;30.612;2022-07-01T05:09:05;4.25;;;3.37;;
58978;SDS011;44763;50.464;30.612;2022-07-01T05:11:31;4.53;;;2.22;;
58978;SDS011;44763;50.464;30.612;2022-07-01T05:14:00;2.77;;;2.55;;
58978;SDS011;44763;50.464;30.612;2022-07-01T05:16:26;2.52;;;2.42;;
58978;SDS011;44763;50.464;30.612;2022-07-01T05:18:53;2.85;;;2.12;;
58978;SDS011;44763;50.464;30.612;2022-07-01T05:21:38;2.17;;;1.95;;
58978;SDS011;44763;50.464;30.612;2022-07-01T05:24:22;2.52;;;2.33;;
58978;SDS011;44763;50.464;30.612;2022-07-01T05:26:52;6.37;;;3.17;;
58978;SDS011;44763;50.464;30.612;2022-07-01T05:29:18;6.17;;;2.72;;
58978;SDS011;44763;50.464;30.612;2022-07-01T05:31:44;3.85;;;2.60;;
58978;SDS011;44763;50.464;30.612;2022-07-01T05:34:11;2.75;;;2.55;;
58978;SDS011;44763;50.464;30.612;2022-07-01T05:36:37;3.70;;;3.40;;
58978;SDS011;44763;50.464;30.612;2022-07-01T05:39:05;4.62;;;3.05;;
58978;SDS011;44763;50.464;30.612;2022-07-01T05:41:32;5.25;;;2.87;;
58978;SDS011;44763;50.464;30.612;2022-07-01T05:44:00;6.47;;;3.70;;
58978;SDS011;44763;50.464;30.612;2022-07-01T05:46:26;3.20;;;3.00;;
58978;SDS011;44763;50.464;30.612;2022-07-01T05:48:53;3.75;;;3.50;;
58978;SDS011;44763;50.464;30.612;2022-07-01T05:51:19;3.08;;;2.98;;
58978;SDS011;44763;50.464;30.612;2022-07-01T05:53:45;3.52;;;3.22;;
58978;SDS011;44763;50.464;30.612;2022-07-01T05:56:13;4.65;;;3.30;;
58978;SDS011;44763;50.464;30.612;2022-07-01T05:58:40;3.50;;;3.20;;
58978;SDS011;44763;50.464;30.612;2022-07-01T06:01:06;18.45;;;3.90;;
58978;SDS011;44763;50.464;30.612;2022-07-01T06:03:32;3.77;;;3.27;;
58978;SDS011;44763;50.464;30.612;2022-07-01T06:05:59;4.33;;;3.98;;
58978;SDS011;44763;50.464;30.612;2022-07-01T06:08:25;5.00;;;3.70;;
58978;SDS011;44763;50.464;30.612;2022-07-01T06:10:51;4.22;;;3.80;;
58978;SDS011;44763;50.464;30.612;2022-07-01T06:13:17;3.90;;;3.50;;
58978;SDS011;44763;50.464;30.612;2022-07-01T06:15:43;3.70;;;3.40;;
58978;SDS011;44763;50.464;30.612;2022-07-01T06:18:10;4.58;;;4.08;;
58978;SDS011;44763;50.464;30.612;2022-07-01T06:20:36;4.17;;;3.85;;
58978;SDS011;44763;50.464;30.612;2022-07-01T06:23:03;4.40;;;3.70;;
58978;SDS011;44763;50.464;30.612;2022-07-01T06:25:30;4.10;;;3.65;;
58978;SDS011;44763;50.464;30.612;2022-07-01T06:27:56;4.28;;;4.05;;
58978;SDS011;44763;50.464;30.612;2022-07-01T06:30:22;3.85;;;3.55;;
58978;SDS011;44763;50.464;30.612;2022-07-01T06:32:49;4.15;;;3.85;;
58978;SDS011;44763;50.464;30.612;2022-07-01T06:35:15;3.58;;;3.27;;
58978;SDS011;44763;50.464;30.612;2022-07-01T06:37:43;3.52;;;3.22;;
58978;SDS011;44763;50.464;30.612;2022-07-01T06:40:09;3.55;;;3.30;;
58978;SDS011;44763;50.464;30.612;2022-07-01T06:42:37;6.28;;;4.00;;
58978;SDS011;44763;50.464;30.612;2022-07-01T06:45:04;2.33;;;2.22;;
58978;SDS011;44763;50.464;30.612;2022-07-01T06:47:32;2.83;;;2.27;;
58978;SDS011;44763;50.464;30.612;2022-07-01T06:49:59;3.75;;;2.58;;
58978;SDS011;44763;50.464;30.612;2022-07-01T06:52:25;3.10;;;2.60;;
58978;SDS011;44763;50.464;30.612;2022-07-01T06:54:51;2.40;;;2.17;;
58978;SDS011;44763;50.464;30.612;2022-07-01T06:57:17;4.30;;;1.95;;
58978;SDS011;44763;50.464;30.612;2022-07-01T06:59:44;2.15;;;1.60;;
58978;SDS011;44763;50.464;30.612;2022-07-01T07:02:10;2.80;;;2.37;;
58978;SDS011;44763;50.464;30.612;2022-07-01T07:04:36;2.33;;;2.22;;
58978;SDS011;44763;50.464;30.612;2022-07-01T07:07:03;1.98;;;1.87;;
58978;SDS011;44763;50.464;30.612;2022-07-01T07:09:29;1.85;;;1.65;;
58978;SDS011;44763;50.464;30.612;2022-07-01T07:11:55;3.20;;;1.62;;
58978;SDS011;44763;50.464;30.612;2022-07-01T07:14:22;1.52;;;1.42;;
58978;SDS011;44763;50.464;30.612;2022-07-01T07:16:48;1.85;;;1.75;;
58978;SDS011;44763;50.464;30.612;2022-07-01T07:19:16;1.82;;;1.75;;
58978;SDS011;44763;50.464;30.612;2022-07-01T07:21:43;2.70;;;2.47;;
58978;SDS011;44763;50.464;30.612;2022-07-01T07:24:09;3.40;;;1.57;;
58978;SDS011;44763;50.464;30.612;2022-07-01T07:26:35;1.77;;;1.67;;
58978;SDS011;44763;50.464;30.612;2022-07-01T07:29:01;1.98;;;1.87;;
58978;SDS011;44763;50.464;30.612;2022-07-01T07:31:28;2.17;;;1.98;;
58978;SDS011;44763;50.464;30.612;2022-07-01T07:33:55;2.67;;;1.55;;
58978;SDS011;44763;50.464;30.612;2022-07-01T07:36:21;1.57;;;1.47;;
58978;SDS011;44763;50.464;30.612;2022-07-01T07:38:48;2.42;;;2.30;;
58978;SDS011;44763;50.464;30.612;2022-07-01T07:41:15;2.05;;;1.60;;
58978;SDS011;44763;50.464;30.612;2022-07-01T07:43:41;1.90;;;1.77;;
58978;SDS011;44763;50.464;30.612;2022-07-01T07:46:07;2.30;;;2.15;;
58978;SDS011;44763;50.464;30.612;2022-07-01T07:48:33;1.40;;;1.40;;
58978;SDS011;44763;50.464;30.612;2022-07-01T07:51:00;3.15;;;1.67;;
58978;SDS011;44763;50.464;30.612;2022-07-01T07:53:26;2.90;;;2.70;;
58978;SDS011;44763;50.464;30.612;2022-07-01T07:55:53;4.37;;;3.42;;
58978;SDS011;44763;50.464;30.612;2022-07-01T07:58:19;3.05;;;2.60;;
58978;SDS011;44763;50.464;30.612;2022-07-01T08:00:45;2.58;;;2.47;;
58978;SDS011;44763;50.464;30.612;2022-07-01T08:03:12;2.80;;;2.67;;
58978;SDS011;44763;50.464;30.612;2022-07-01T08:05:38;2.40;;;2.30;;
58978;SDS011;44763;50.464;30.612;2022-07-01T08:08:04;2.98;;;2.77;;
58978;SDS011;44763;50.464;30.612;2022-07-01T08:10:31;2.77;;;2.50;;
58978;SDS011;44763;50.464;30.612;2022-07-01T08:13:00;3.05;;;2.40;;
58978;SDS011;44763;50.464;30.612;2022-07-01T08:15:28;4.47;;;2.80;;
58978;SDS011;44763;50.464;30.612;2022-07-01T08:17:55;2.90;;;2.70;;
58978;SDS011;44763;50.464;30.612;2022-07-01T08:20:22;3.27;;;3.00;;
58978;SDS011;44763;50.464;30.612;2022-07-01T08:22:49;3.52;;;2.60;;
58978;SDS011;44763;50.464;30.612;2022-07-01T08:25:15;2.83;;;2.50;;
58978;SDS011;44763;50.464;30.612;2022-07-01T08:27:42;3.35;;;2.95;;
58978;SDS011;44763;50.464;30.612;2022-07-01T08:30:09;2.27;;;2.10;;
58978;SDS011;44763;50.464;30.612;2022-07-01T08:32:37;4.70;;;3.20;;
58978;SDS011;44763;50.464;30.612;2022-07-01T08:35:03;3.08;;;2.77;;
58978;SDS011;44763;50.464;30.612;2022-07-01T08:37:30;2.85;;;2.62;;
58978;SDS011;44763;50.464;30.612;2022-07-01T08:39:57;2.45;;;2.40;;
58978;SDS011;44763;50.464;30.612;2022-07-01T08:42:25;4.12;;;2.50;;
58978;SDS011;44763;50.464;30.612;2022-07-01T08:44:51;2.85;;;2.65;;
58978;SDS011;44763;50.464;30.612;2022-07-01T08:47:17;2.72;;;2.55;;
58978;SDS011;44763;50.464;30.612;2022-07-01T08:49:43;2.65;;;2.45;;
58978;SDS011;44763;50.464;30.612;2022-07-01T08:52:10;3.10;;;2.77;;
58978;SDS011;44763;50.464;30.612;2022-07-01T08:54:38;3.10;;;2.60;;
58978;SDS011;44763;50.464;30.612;2022-07-01T08:57:05;4.65;;;1.90;;
58978;SDS011;44763;50.464;30.612;2022-07-01T08:59:32;1.65;;;1.65;;
58978;SDS011;44763;50.464;30.612;2022-07-01T09:02:00;3.95;;;2.37;;
58978;SDS011;44763;50.464;30.612;2022-07-01T09:04:30;3.05;;;2.52;;
58978;SDS011;44763;50.464;30.612;2022-07-01T09:07:05;1.98;;;1.87;;
58978;SDS011;44763;50.464;30.612;2022-07-01T09:12:05;3.40;;;2.33;;
58978;SDS011;44763;50.464;30.612;2022-07-01T09:14:34;6.15;;;2.47;;
58978;SDS011;44763;50.464;30.612;2022-07-01T09:17:04;3.10;;;2.72;;
58978;SDS011;44763;50.464;30.612;2022-07-01T09:19:33;4.70;;;2.05;;
58978;SDS011;44763;50.464;30.612;2022-07-01T09:22:02;1.95;;;1.95;;
58978;SDS011;44763;50.464;30.612;2022-07-01T09:24:35;4.22;;;1.80;;
58978;SDS011;44763;50.464;30.612;2022-07-01T09:27:07;1.98;;;1.87;;
58978;SDS011;44763;50.464;30.612;2022-07-01T09:32:14;2.02;;;1.75;;
58978;SDS011;44763;50.464;30.612;2022-07-01T09:34:46;2.75;;;1.70;;
58978;SDS011;44763;50.464;30.612;2022-07-01T09:37:22;2.27;;;2.17;;
58978;SDS011;44763;50.464;30.612;2022-07-01T09:39:54;1.95;;;1.67;;
58978;SDS011;44763;50.464;30.612;2022-07-01T09:42:23;4.87;;;2.30;;
58978;SDS011;44763;50.464;30.612;2022-07-01T09:47:32;5.42;;;1.37;;
58978;SDS011;44763;50.464;30.612;2022-07-01T09:50:01;2.65;;;1.37;;
58978;SDS011;44763;50.464;30.612;2022-07-01T09:52:31;1.40;;;1.37;;
58978;SDS011;44763;50.464;30.612;2022-07-01T09:54:59;3.77;;;0.85;;
58978;SDS011;44763;50.464;30.612;2022-07-01T09:57:25;1.52;;;1.35;;
58978;SDS011;44763;50.464;30.612;2022-07-01T09:59:52;2.12;;;0.80;;
58978;SDS011;44763;50.464;30.612;2022-07-01T10:02:18;1.30;;;0.85;;
58978;SDS011;44763;50.464;30.612;2022-07-01T10:04:51;4.08;;;1.50;;
58978;SDS011;44763;50.464;30.612;2022-07-01T10:10:41;1.87;;;1.47;;
58978;SDS011;44763;50.464;30.612;2022-07-01T10:13:42;2.25;;;1.42;;
58978;SDS011;44763;50.464;30.612;2022-07-01T10:16:11;4.95;;;0.93;;
58978;SDS011;44763;50.464;30.612;2022-07-01T10:18:39;0.90;;;0.65;;
58978;SDS011;44763;50.464;30.612;2022-07-01T10:21:06;0.65;;;0.65;;
58978;SDS011;44763;50.464;30.612;2022-07-01T10:23:41;2.55;;;0.80;;
58978;SDS011;44763;50.464;30.612;2022-07-01T10:26:08;0.53;;;0.50;;
58978;SDS011;44763;50.464;30.612;2022-07-01T10:31:13;6.47;;;0.62;;
58978;SDS011;44763;50.464;30.612;2022-07-01T10:41:37;1.95;;;0.40;;
58978;SDS011;44763;50.464;30.612;2022-07-01T10:44:25;0.50;;;0.40;;
58978;SDS011;44763;50.464;30.612;2022-07-01T10:47:03;1.37;;;0.68;;
58978;SDS011;44763;50.464;30.612;2022-07-01T10:52:14;1.45;;;0.30;;
58978;SDS011;44763;50.464;30.612;2022-07-01T11:07:37;1.25;;;0.70;;
58978;SDS011;44763;50.464;30.612;2022-07-01T11:10:11;1.00;;;0.42;;
58978;SDS011;44763;50.464;30.612;2022-07-01T11:12:43;2.67;;;0.45;;
58978;SDS011;44763;50.464;30.612;2022-07-01T11:15:10;2.95;;;0.80;;
58978;SDS011;44763;50.464;30.612;2022-07-01T11:17:44;2.98;;;0.88;;
58978;SDS011;44763;50.464;30.612;2022-07-01T11:20:13;1.37;;;0.53;;
58978;SDS011;44763;50.464;30.612;2022-07-01T11:22:39;2.27;;;0.95;;
58978;SDS011;44763;50.464;30.612;2022-07-01T11:25:11;3.92;;;0.50;;
58978;SDS011;44763;50.464;30.612;2022-07-01T11:27:36;1.87;;;0.53;;
58978;SDS011;44763;50.464;30.612;2022-07-01T11:30:07;1.67;;;0.42;;
58978;SDS011;44763;50.464;30.612;2022-07-01T11:32:39;0.93;;;0.53;;
58978;SDS011;44763;50.464;30.612;2022-07-01T11:35:16;2.95;;;0.90;;
58978;SDS011;44763;50.464;30.612;2022-07-01T11:38:17;1.15;;;0.30;;
58978;SDS011;44763;50.464;30.612;2022-07-01T11:41:06;0.45;;;0.40;;
58978;SDS011;44763;50.464;30.612;2022-07-01T11:43:48;1.90;;;0.72;;
58978;SDS011;44763;50.464;30.612;2022-07-01T11:46:16;3.35;;;0.60;;
58978;SDS011;44763;50.464;30.612;2022-07-01T11:48:50;0.95;;;0.47;;
58978;SDS011;44763;50.464;30.612;2022-07-01T11:51:17;1.37;;;0.40;;
58978;SDS011;44763;50.464;30.612;2022-07-01T11:57:34;2.47;;;0.53;;
58978;SDS011;44763;50.464;30.612;2022-07-01T12:00:09;1.67;;;1.05;;
58978;SDS011;44763;50.464;30.612;2022-07-01T12:02:38;2.25;;;0.70;;
58978;SDS011;44763;50.464;30.612;2022-07-01T12:05:05;0.60;;;0.60;;
58978;SDS011;44763;50.464;30.612;2022-07-01T12:07:32;3.90;;;0.60;;
58978;SDS011;44763;50.464;30.612;2022-07-01T12:09:59;2.87;;;0.70;;
58978;SDS011;44763;50.464;30.612;2022-07-01T12:12:27;3.12;;;0.95;;
58978;SDS011;44763;50.464;30.612;2022-07-01T12:14:54;0.80;;;0.62;;
58978;SDS011;44763;50.464;30.612;2022-07-01T12:17:23;0.82;;;0.70;;
58978;SDS011;44763;50.464;30.612;2022-07-01T12:19:52;1.12;;;0.78;;
58978;SDS011;44763;50.464;30.612;2022-07-01T12:22:20;0.50;;;0.50;;
58978;SDS011;44763;50.464;30.612;2022-07-01T12:24:50;4.58;;;0.70;;
58978;SDS011;44763;50.464;30.612;2022-07-01T12:27:21;1.52;;;0.50;;
58978;SDS011;44763;50.464;30.612;2022-07-01T12:29:49;1.15;;;0.50;;
58978;SDS011;44763;50.464;30.612;2022-07-01T12:32:20;1.37;;;0.65;;
58978;SDS011;44763;50.464;30.612;2022-07-01T12:37:28;1.65;;;0.60;;
58978;SDS011;44763;50.464;30.612;2022-07-01T12:42:50;0.65;;;0.65;;
58978;SDS011;44763;50.464;30.612;2022-07-01T12:45:17;0.60;;;0.37;;
58978;SDS011;44763;50.464;30.612;2022-07-01T12:47:50;2.85;;;0.60;;
58978;SDS011;44763;50.464;30.612;2022-07-01T12:50:19;0.70;;;0.57;;
58978;SDS011;44763;50.464;30.612;2022-07-01T12:55:40;1.77;;;0.60;;
58978;SDS011;44763;50.464;30.612;2022-07-01T12:58:14;2.75;;;0.65;;
58978;SDS011;44763;50.464;30.612;2022-07-01T13:00:41;1.42;;;0.60;;
58978;SDS011;44763;50.464;30.612;2022-07-01T13:03:09;4.47;;;0.60;;
58978;SDS011;44763;50.464;30.612;2022-07-01T13:05:38;3.52;;;0.37;;
58978;SDS011;44763;50.464;30.612;2022-07-01T13:08:06;2.52;;;0.40;;
58978;SDS011;44763;50.464;30.612;2022-07-01T13:10:35;2.27;;;0.55;;
58978;SDS011;44763;50.464;30.612;2022-07-01T13:13:02;1.90;;;0.20;;
58978;SDS011;44763;50.464;30.612;2022-07-01T13:15:30;1.67;;;0.40;;
58978;SDS011;44763;50.464;30.612;2022-07-01T13:17:56;1.05;;;0.37;;
58978;SDS011;44763;50.464;30.612;2022-07-01T13:20:23;2.95;;;0.50;;
58978;SDS011;44763;50.464;30.612;2022-07-01T13:22:49;0.68;;;0.30;;
58978;SDS011;44763;50.464;30.612;2022-07-01T13:25:15;3.62;;;0.40;;
58978;SDS011;44763;50.464;30.612;2022-07-01T13:27:43;2.52;;;0.35;;
58978;SDS011;44763;50.464;30.612;2022-07-01T13:30:09;4.40;;;0.82;;
58978;SDS011;44763;50.464;30.612;2022-07-01T13:32:38;4.15;;;0.40;;
58978;SDS011;44763;50.464;30.612;2022-07-01T13:35:05;2.08;;;0.55;;
58978;SDS011;44763;50.464;30.612;2022-07-01T13:37:34;0.85;;;0.47;;
58978;SDS011;44763;50.464;30.612;2022-07-01T13:40:00;1.55;;;0.50;;
58978;SDS011;44763;50.464;30.612;2022-07-01T13:42:27;1.55;;;0.20;;
58978;SDS011;44763;50.464;30.612;2022-07-01T13:44:53;1.27;;;0.42;;
58978;SDS011;44763;50.464;30.612;2022-07-01T13:47:19;2.27;;;0.40;;
58978;SDS011;44763;50.464;30.612;2022-07-01T13:49:46;1.25;;;0.30;;
58978;SDS011;44763;50.464;30.612;2022-07-01T13:52:13;2.40;;;0.53;;
58978;SDS011;44763;50.464;30.612;2022-07-01T13:54:39;2.92;;;0.35;;
58978;SDS011;44763;50.464;30.612;2022-07-01T13:57:05;0.42;;;0.37;;
58978;SDS011;44763;50.464;30.612;2022-07-01T13:59:32;1.07;;;0.30;;
58978;SDS011;44763;50.464;30.612;2022-07-01T14:01:59;2.30;;;0.28;;
58978;SDS011;44763;50.464;30.612;2022-07-01T14:04:25;1.02;;;0.85;;
58978;SDS011;44763;50.464;30.612;2022-07-01T14:06:51;3.30;;;0.47;;
58978;SDS011;44763;50.464;30.612;2022-07-01T14:09:18;1.17;;;0.40;;
58978;SDS011;44763;50.464;30.612;2022-07-01T14:11:46;0.65;;;0.35;;
58978;SDS011;44763;50.464;30.612;2022-07-01T14:14:12;3.15;;;0.30;;
58978;SDS011;44763;50.464;30.612;2022-07-01T14:16:39;0.62;;;0.30;;
58978;SDS011;44763;50.464;30.612;2022-07-01T14:19:04;1.40;;;0.57;;
58978;SDS011;44763;50.464;30.612;2022-07-01T14:21:31;4.03;;;0.65;;
58978;SDS011;44763;50.464;30.612;2022-07-01T14:23:57;0.25;;;0.20;;
58978;SDS011;44763;50.464;30.612;2022-07-01T14:26:23;2.25;;;0.30;;
58978;SDS011;44763;50.464;30.612;2022-07-01T14:28:50;0.20;;;0.20;;
58978;SDS011;44763;50.464;30.612;2022-07-01T14:31:17;2.62;;;0.40;;
58978;SDS011;44763;50.464;30.612;2022-07-01T14:33:43;3.27;;;0.20;;
58978;SDS011;44763;50.464;30.612;2022-07-01T14:36:10;2.02;;;0.23;;
58978;SDS011;44763;50.464;30.612;2022-07-01T14:38:36;0.57;;;0.20;;
58978;SDS011;44763;50.464;30.612;2022-07-01T14:41:02;0.33;;;0.33;;
58978;SDS011;44763;50.464;30.612;2022-07-01T14:43:28;2.17;;;0.40;;
58978;SDS011;44763;50.464;30.612;2022-07-01T14:45:55;1.32;;;0.70;;
58978;SDS011;44763;50.464;30.612;2022-07-01T14:48:21;2.20;;;0.40;;
58978;SDS011;44763;50.464;30.612;2022-07-01T14:50:47;0.30;;;0.30;;
58978;SDS011;44763;50.464;30.612;2022-07-01T14:53:14;0.30;;;0.30;;
58978;SDS011;44763;50.464;30.612;2022-07-01T14:55:40;4.20;;;0.50;;
58978;SDS011;44763;50.464;30.612;2022-07-01T14:58:06;2.72;;;0.45;;
58978;SDS011;44763;50.464;30.612;2022-07-01T15:00:34;0.62;;;0.20;;
58978;SDS011;44763;50.464;30.612;2022-07-01T15:03:06;0.28;;;0.20;;
58978;SDS011;44763;50.464;30.612;2022-07-01T15:05:32;0.93;;;0.20;;
58978;SDS011;44763;50.464;30.612;2022-07-01T15:07:59;1.85;;;0.42;;
58978;SDS011;44763;50.464;30.612;2022-07-01T15:10:26;1.55;;;0.20;;
58978;SDS011;44763;50.464;30.612;2022-07-01T15:12:53;4.30;;;0.35;;
58978;SDS011;44763;50.464;30.612;2022-07-01T15:15:20;0.37;;;0.20;;
58978;SDS011;44763;50.464;30.612;2022-07-01T15:17:46;1.55;;;0.40;;
58978;SDS011;44763;50.464;30.612;2022-07-01T15:20:13;0.25;;;0.20;;
58978;SDS011;44763;50.464;30.612;2022-07-01T15:22:41;0.85;;;0.20;;
58978;SDS011;44763;50.464;30.612;2022-07-01T15:25:09;2.02;;;0.20;;
58978;SDS011;44763;50.464;30.612;2022-07-01T15:27:36;0.55;;;0.35;;
58978;SDS011;44763;50.464;30.612;2022-07-01T15:30:04;1.05;;;0.20;;
58978;SDS011;44763;50.464;30.612;2022-07-01T15:32:32;0.62;;;0.55;;
58978;SDS011;44763;50.464;30.612;2022-07-01T15:34:59;1.52;;;0.20;;
58978;SDS011;44763;50.464;30.612;2022-07-01T15:37:25;0.50;;;0.45;;
58978;SDS011;44763;50.464;30.612;2022-07-01T15:39:51;0.40;;;0.33;;
58978;SDS011;44763;50.464;30.612;2022-07-01T15:42:17;1.17;;;0.30;;
58978;SDS011;44763;50.464;30.612;2022-07-01T15:44:44;2.08;;;0.40;;
58978;SDS011;44763;50.464;30.612;2022-07-01T15:47:10;0.60;;;0.30;;